sensor_id;sensor_type;location;lat;lon;timestamp;P1;durP1;ratioP1;P2;durP2;ratioP2
13609;SDS011;6876;50.788;4.940;2023-04-22T00:01:56;1999.90;;;999.90;;
13609;SDS011;6876;50.788;4.940;2023-04-22T00:04:43;1999.90;;;999.90;;
13609;SDS011;6876;50.788;4.940;2023-04-22T00:07:32;1999.90;;;999.90;;
13609;SDS011;6876;50.788;4.940;2023-04-22T00:10:20;1999.90;;;999.90;;
13609;SDS011;6876;50.788;4.940;2023-04-22T00:13:07;1999.90;;;999.90;;
13609;SDS011;6876;50.788;4.940;2023-04-22T00:15:54;1999.90;;;999.90;;
13609;SDS011;6876;50.788;4.940;2023-04-22T00:18:42;1999.90;;;999.90;;
13609;SDS011;6876;50.788;4.940;2023-04-22T00:21:29;1999.90;;;999.90;;
13609;SDS011;6876;50.788;4.940;2023-04-22T00:24:18;1999.90;;;999.90;;
13609;SDS011;6876;50.788;4.940;2023-04-22T00:27:05;1999.90;;;999.90;;
13609;SDS011;6876;50.788;4.940;2023-04-22T00:29:53;1999.90;;;999.90;;
13609;SDS011;6876;50.788;4.940;2023-04-22T00:32:40;1999.90;;;999.90;;
13609;SDS011;6876;50.788;4.940;2023-04-22T00:35:27;1999.90;;;999.90;;
13609;SDS011;6876;50.788;4.940;2023-04-22T00:38:15;1999.90;;;999.90;;
13609;SDS011;6876;50.788;4.940;2023-04-22T00:41:03;1999.90;;;999.90;;
13609;SDS011;6876;50.788;4.940;2023-04-22T00:43:51;1999.90;;;999.90;;
13609;SDS011;6876;50.788;4.940;2023-04-22T00:46:39;1999.90;;;999.90;;
13609;SDS011;6876;50.788;4.940;2023-04-22T00:49:26;1999.90;;;999.90;;
13609;SDS011;6876;50.788;4.940;2023-04-22T00:52:14;1999.90;;;999.90;;
13609;SDS011;6876;50.788;4.940;2023-04-22T00:55:01;1999.90;;;999.90;;
13609;SDS011;6876;50.788;4.940;2023-04-22T00:57:50;1999.90;;;999.90;;
13609;SDS011;6876;50.788;4.940;2023-04-22T01:00:39;1999.90;;;999.90;;
13609;SDS011;6876;50.788;4.940;2023-04-22T01:03:27;1999.90;;;999.90;;
13609;SDS011;6876;50.788;4.940;2023-04-22T01:06:16;1999.90;;;999.90;;
13609;SDS011;6876;50.788;4.940;2023-04-22T01:09:04;1999.90;;;999.90;;
13609;SDS011;6876;50.788;4.940;2023-04-22T01:11:53;1999.90;;;999.90;;
13609;SDS011;6876;50.788;4.940;2023-04-22T01:14:42;1999.90;;;999.90;;
13609;SDS011;6876;50.788;4.940;2023-04-22T01:17:29;1999.90;;;999.90;;
13609;SDS011;6876;50.788;4.940;2023-04-22T01:20:18;1999.90;;;999.90;;
13609;SDS011;6876;50.788;4.940;2023-04-22T01:23:05;1999.90;;;999.90;;
13609;SDS011;6876;50.788;4.940;2023-04-22T01:26:00;1999.90;;;999.90;;
13609;SDS011;6876;50.788;4.940;2023-04-22T01:28:48;1999.90;;;999.90;;
13609;SDS011;6876;50.788;4.940;2023-04-22T01:31:35;1999.90;;;999.90;;
13609;SDS011;6876;50.788;4.940;2023-04-22T01:34:23;1999.90;;;999.90;;
13609;SDS011;6876;50.788;4.940;2023-04-22T01:37:11;1999.90;;;999.90;;
13609;SDS011;6876;50.788;4.940;2023-04-22T01:39:59;1999.90;;;999.90;;
13609;SDS011;6876;50.788;4.940;2023-04-22T01:42:47;1999.90;;;999.90;;
13609;SDS011;6876;50.788;4.940;2023-04-22T01:45:35;1999.90;;;999.90;;
13609;SDS011;6876;50.788;4.940;2023-04-22T01:48:22;1999.90;;;999.90;;
13609;SDS011;6876;50.788;4.940;2023-04-22T01:51:10;1999.90;;;999.90;;
13609;SDS011;6876;50.788;4.940;2023-04-22T01:53:57;1999.90;;;999.90;;
13609;SDS011;6876;50.788;4.940;2023-04-22T01:56:49;1999.90;;;999.90;;
13609;SDS011;6876;50.788;4.940;2023-04-22T01:59:37;1999.90;;;999.90;;
13609;SDS011;6876;50.788;4.940;2023-04-22T02:02:24;1999.90;;;999.90;;
13609;SDS011;6876;50.788;4.940;2023-04-22T02:05:11;1999.90;;;999.90;;
13609;SDS011;6876;50.788;4.940;2023-04-22T02:07:59;1999.90;;;999.90;;
13609;SDS011;6876;50.788;4.940;2023-04-22T02:10:46;1999.90;;;999.90;;
13609;SDS011;6876;50.788;4.940;2023-04-22T02:13:35;1999.90;;;999.90;;
13609;SDS011;6876;50.788;4.940;2023-04-22T02:16:23;1999.90;;;999.90;;
13609;SDS011;6876;50.788;4.940;2023-04-22T02:19:10;1999.90;;;999.90;;
13609;SDS011;6876;50.788;4.940;2023-04-22T02:21:58;1999.90;;;999.90;;
13609;SDS011;6876;50.788;4.940;2023-04-22T02:24:46;1999.90;;;999.90;;
13609;SDS011;6876;50.788;4.940;2023-04-22T02:27:33;1999.90;;;999.90;;
13609;SDS011;6876;50.788;4.940;2023-04-22T02:30:22;1999.90;;;999.90;;
13609;SDS011;6876;50.788;4.940;2023-04-22T02:33:10;1999.90;;;999.90;;
13609;SDS011;6876;50.788;4.940;2023-04-22T02:35:57;1999.90;;;999.90;;
13609;SDS011;6876;50.788;4.940;2023-04-22T02:38:44;1999.90;;;999.90;;
13609;SDS011;6876;50.788;4.940;2023-04-22T02:41:32;1999.90;;;999.90;;
13609;SDS011;6876;50.788;4.940;2023-04-22T02:44:19;1999.90;;;999.90;;
13609;SDS011;6876;50.788;4.940;2023-04-22T02:47:08;1999.90;;;999.90;;
13609;SDS011;6876;50.788;4.940;2023-04-22T02:49:55;1999.90;;;999.90;;
13609;SDS011;6876;50.788;4.940;2023-04-22T02:52:42;1999.90;;;999.90;;
13609;SDS011;6876;50.788;4.940;2023-04-22T02:55:30;1999.90;;;999.90;;
13609;SDS011;6876;50.788;4.940;2023-04-22T02:58:17;1999.90;;;999.90;;
13609;SDS011;6876;50.788;4.940;2023-04-22T03:01:04;1999.90;;;999.90;;
13609;SDS011;6876;50.788;4.940;2023-04-22T03:03:53;1999.90;;;999.90;;
13609;SDS011;6876;50.788;4.940;2023-04-22T03:06:41;1999.90;;;999.90;;
13609;SDS011;6876;50.788;4.940;2023-04-22T03:09:29;1999.90;;;999.90;;
13609;SDS011;6876;50.788;4.940;2023-04-22T03:12:16;1999.90;;;999.90;;
13609;SDS011;6876;50.788;4.940;2023-04-22T03:15:03;1999.90;;;999.90;;
13609;SDS011;6876;50.788;4.940;2023-04-22T03:17:51;1999.90;;;999.90;;
13609;SDS011;6876;50.788;4.940;2023-04-22T03:20:40;1999.90;;;999.90;;
13609;SDS011;6876;50.788;4.940;2023-04-22T03:23:28;1999.90;;;999.90;;
13609;SDS011;6876;50.788;4.940;2023-04-22T03:26:15;1999.90;;;999.90;;
13609;SDS011;6876;50.788;4.940;2023-04-22T03:29:03;1999.90;;;999.90;;
13609;SDS011;6876;50.788;4.940;2023-04-22T03:31:50;1999.90;;;999.90;;
13609;SDS011;6876;50.788;4.940;2023-04-22T03:34:37;1999.90;;;999.90;;
13609;SDS011;6876;50.788;4.940;2023-04-22T03:37:26;1999.90;;;999.90;;
13609;SDS011;6876;50.788;4.940;2023-04-22T03:40:13;1999.90;;;999.90;;
13609;SDS011;6876;50.788;4.940;2023-04-22T03:43:01;1999.90;;;999.90;;
13609;SDS011;6876;50.788;4.940;2023-04-22T03:45:49;1999.90;;;999.90;;
13609;SDS011;6876;50.788;4.940;2023-04-22T03:48:37;1999.90;;;999.90;;
13609;SDS011;6876;50.788;4.940;2023-04-22T03:51:24;1999.90;;;999.90;;
13609;SDS011;6876;50.788;4.940;2023-04-22T03:54:13;1999.90;;;999.90;;
13609;SDS011;6876;50.788;4.940;2023-04-22T03:57:00;1999.90;;;999.90;;
13609;SDS011;6876;50.788;4.940;2023-04-22T03:59:47;1999.90;;;999.90;;
13609;SDS011;6876;50.788;4.940;2023-04-22T04:02:35;1999.90;;;999.90;;
13609;SDS011;6876;50.788;4.940;2023-04-22T04:05:22;1999.90;;;999.90;;
13609;SDS011;6876;50.788;4.940;2023-04-22T04:08:09;1999.90;;;999.90;;
13609;SDS011;6876;50.788;4.940;2023-04-22T04:10:58;1999.90;;;999.90;;
13609;SDS011;6876;50.788;4.940;2023-04-22T04:13:45;1999.90;;;999.90;;
13609;SDS011;6876;50.788;4.940;2023-04-22T04:16:32;1999.90;;;999.90;;
13609;SDS011;6876;50.788;4.940;2023-04-22T04:19:20;1999.90;;;999.90;;
13609;SDS011;6876;50.788;4.940;2023-04-22T04:22:07;1999.90;;;999.90;;
13609;SDS011;6876;50.788;4.940;2023-04-22T04:24:55;1999.90;;;999.90;;
13609;SDS011;6876;50.788;4.940;2023-04-22T04:27:44;1999.90;;;999.90;;
13609;SDS011;6876;50.788;4.940;2023-04-22T04:30:31;1999.90;;;999.90;;
13609;SDS011;6876;50.788;4.940;2023-04-22T04:33:19;1999.90;;;999.90;;
13609;SDS011;6876;50.788;4.940;2023-04-22T04:36:06;1999.90;;;999.90;;
13609;SDS011;6876;50.788;4.940;2023-04-22T04:38:54;1999.90;;;999.90;;
13609;SDS011;6876;50.788;4.940;2023-04-22T04:41:42;1999.90;;;999.90;;
13609;SDS011;6876;50.788;4.940;2023-04-22T04:44:30;1999.90;;;999.90;;
13609;SDS011;6876;50.788;4.940;2023-04-22T04:47:18;1999.90;;;999.90;;
13609;SDS011;6876;50.788;4.940;2023-04-22T04:50:07;1999.90;;;999.90;;
13609;SDS011;6876;50.788;4.940;2023-04-22T04:52:54;1999.90;;;999.90;;
13609;SDS011;6876;50.788;4.940;2023-04-22T04:55:42;1999.90;;;999.90;;
13609;SDS011;6876;50.788;4.940;2023-04-22T04:58:29;1999.90;;;999.90;;
13609;SDS011;6876;50.788;4.940;2023-04-22T05:01:18;1999.90;;;999.90;;
13609;SDS011;6876;50.788;4.940;2023-04-22T05:04:05;1999.90;;;999.90;;
13609;SDS011;6876;50.788;4.940;2023-04-22T05:06:52;1999.90;;;999.90;;
13609;SDS011;6876;50.788;4.940;2023-04-22T05:09:40;1999.90;;;999.90;;
13609;SDS011;6876;50.788;4.940;2023-04-22T05:12:27;1999.90;;;999.90;;
13609;SDS011;6876;50.788;4.940;2023-04-22T05:15:14;1999.90;;;999.90;;
13609;SDS011;6876;50.788;4.940;2023-04-22T05:18:03;1999.90;;;999.90;;
13609;SDS011;6876;50.788;4.940;2023-04-22T05:20:51;1999.90;;;999.90;;
13609;SDS011;6876;50.788;4.940;2023-04-22T05:23:38;1999.90;;;999.90;;
13609;SDS011;6876;50.788;4.940;2023-04-22T05:26:25;1999.90;;;999.90;;
13609;SDS011;6876;50.788;4.940;2023-04-22T05:29:13;1999.90;;;999.90;;
13609;SDS011;6876;50.788;4.940;2023-04-22T05:32:00;1999.90;;;999.90;;
13609;SDS011;6876;50.788;4.940;2023-04-22T05:34:49;1999.90;;;999.90;;
13609;SDS011;6876;50.788;4.940;2023-04-22T05:37:36;1999.90;;;999.90;;
13609;SDS011;6876;50.788;4.940;2023-04-22T05:40:24;1999.90;;;999.90;;
13609;SDS011;6876;50.788;4.940;2023-04-22T05:43:11;1999.90;;;999.90;;
13609;SDS011;6876;50.788;4.940;2023-04-22T05:45:59;1999.90;;;999.90;;
13609;SDS011;6876;50.788;4.940;2023-04-22T05:48:46;1999.90;;;999.90;;
13609;SDS011;6876;50.788;4.940;2023-04-22T05:51:35;1999.90;;;999.90;;
13609;SDS011;6876;50.788;4.940;2023-04-22T05:54:22;1999.90;;;999.90;;
13609;SDS011;6876;50.788;4.940;2023-04-22T05:57:10;1999.90;;;999.90;;
13609;SDS011;6876;50.788;4.940;2023-04-22T05:59:57;1999.90;;;999.90;;
13609;SDS011;6876;50.788;4.940;2023-04-22T06:02:45;1999.90;;;999.90;;
13609;SDS011;6876;50.788;4.940;2023-04-22T06:05:35;1999.90;;;999.90;;
13609;SDS011;6876;50.788;4.940;2023-04-22T06:08:23;1999.90;;;999.90;;
13609;SDS011;6876;50.788;4.940;2023-04-22T06:11:11;1999.90;;;999.90;;
13609;SDS011;6876;50.788;4.940;2023-04-22T06:13:58;1999.90;;;999.90;;
13609;SDS011;6876;50.788;4.940;2023-04-22T06:16:45;1999.90;;;999.90;;
13609;SDS011;6876;50.788;4.940;2023-04-22T06:19:34;1999.90;;;999.90;;
13609;SDS011;6876;50.788;4.940;2023-04-22T06:22:22;1999.90;;;999.90;;
13609;SDS011;6876;50.788;4.940;2023-04-22T06:25:11;1999.90;;;999.90;;
13609;SDS011;6876;50.788;4.940;2023-04-22T06:27:58;1999.90;;;999.90;;
13609;SDS011;6876;50.788;4.940;2023-04-22T06:30:46;1999.90;;;999.90;;
13609;SDS011;6876;50.788;4.940;2023-04-22T06:33:33;1999.90;;;999.90;;
13609;SDS011;6876;50.788;4.940;2023-04-22T06:36:20;1999.90;;;999.90;;
13609;SDS011;6876;50.788;4.940;2023-04-22T06:39:08;1999.90;;;999.90;;
13609;SDS011;6876;50.788;4.940;2023-04-22T06:41:57;1999.90;;;999.90;;
13609;SDS011;6876;50.788;4.940;2023-04-22T06:44:45;1999.90;;;999.90;;
13609;SDS011;6876;50.788;4.940;2023-04-22T06:47:33;1999.90;;;999.90;;
13609;SDS011;6876;50.788;4.940;2023-04-22T06:50:20;1999.90;;;999.90;;
13609;SDS011;6876;50.788;4.940;2023-04-22T06:53:08;1999.90;;;999.90;;
13609;SDS011;6876;50.788;4.940;2023-04-22T06:55:55;1999.90;;;999.90;;
13609;SDS011;6876;50.788;4.940;2023-04-22T06:58:43;1999.90;;;999.90;;
13609;SDS011;6876;50.788;4.940;2023-04-22T07:01:31;1999.90;;;999.90;;
13609;SDS011;6876;50.788;4.940;2023-04-22T07:04:18;1999.90;;;999.90;;
13609;SDS011;6876;50.788;4.940;2023-04-22T07:07:06;1999.90;;;999.90;;
13609;SDS011;6876;50.788;4.940;2023-04-22T07:09:53;1999.90;;;999.90;;
13609;SDS011;6876;50.788;4.940;2023-04-22T07:12:41;1999.90;;;999.90;;
13609;SDS011;6876;50.788;4.940;2023-04-22T07:15:30;1999.90;;;999.90;;
13609;SDS011;6876;50.788;4.940;2023-04-22T07:18:17;1999.90;;;999.90;;
13609;SDS011;6876;50.788;4.940;2023-04-22T07:21:05;1999.90;;;999.90;;
13609;SDS011;6876;50.788;4.940;2023-04-22T07:23:52;1999.90;;;999.90;;
13609;SDS011;6876;50.788;4.940;2023-04-22T07:26:40;1999.90;;;999.90;;
13609;SDS011;6876;50.788;4.940;2023-04-22T07:29:29;1999.90;;;999.90;;
13609;SDS011;6876;50.788;4.940;2023-04-22T07:32:18;1999.90;;;999.90;;
13609;SDS011;6876;50.788;4.940;2023-04-22T07:35:05;1999.90;;;999.90;;
13609;SDS011;6876;50.788;4.940;2023-04-22T07:37:53;1999.90;;;999.90;;
13609;SDS011;6876;50.788;4.940;2023-04-22T07:40:41;1999.90;;;999.90;;
13609;SDS011;6876;50.788;4.940;2023-04-22T07:43:28;1999.90;;;999.90;;
13609;SDS011;6876;50.788;4.940;2023-04-22T07:46:15;1999.90;;;999.90;;
13609;SDS011;6876;50.788;4.940;2023-04-22T07:49:04;1999.90;;;999.90;;
13609;SDS011;6876;50.788;4.940;2023-04-22T07:51:51;1999.90;;;999.90;;
13609;SDS011;6876;50.788;4.940;2023-04-22T07:54:39;1999.90;;;999.90;;
13609;SDS011;6876;50.788;4.940;2023-04-22T07:57:26;1999.90;;;999.90;;
13609;SDS011;6876;50.788;4.940;2023-04-22T08:00:13;1999.90;;;999.90;;
13609;SDS011;6876;50.788;4.940;2023-04-22T08:03:01;1999.90;;;999.90;;
13609;SDS011;6876;50.788;4.940;2023-04-22T08:05:50;1999.90;;;999.90;;
13609;SDS011;6876;50.788;4.940;2023-04-22T08:08:38;1999.90;;;999.90;;
13609;SDS011;6876;50.788;4.940;2023-04-22T08:11:25;1999.90;;;999.90;;
13609;SDS011;6876;50.788;4.940;2023-04-22T08:14:12;1999.90;;;999.90;;
13609;SDS011;6876;50.788;4.940;2023-04-22T08:17:00;1999.90;;;999.90;;
13609;SDS011;6876;50.788;4.940;2023-04-22T08:19:47;1999.90;;;999.90;;
13609;SDS011;6876;50.788;4.940;2023-04-22T08:22:36;1999.90;;;999.90;;
13609;SDS011;6876;50.788;4.940;2023-04-22T08:25:24;1999.90;;;999.90;;
13609;SDS011;6876;50.788;4.940;2023-04-22T08:28:11;1999.90;;;999.90;;
13609;SDS011;6876;50.788;4.940;2023-04-22T08:30:59;1999.90;;;999.90;;
13609;SDS011;6876;50.788;4.940;2023-04-22T08:33:46;1999.90;;;999.90;;
13609;SDS011;6876;50.788;4.940;2023-04-22T08:36:35;591.33;;;549.60;;
13609;SDS011;6876;50.788;4.940;2023-04-22T08:39:24;762.00;;;710.97;;
13609;SDS011;6876;50.788;4.940;2023-04-22T08:42:11;866.80;;;799.88;;
13609;SDS011;6876;50.788;4.940;2023-04-22T08:44:58;751.40;;;702.58;;
13609;SDS011;6876;50.788;4.940;2023-04-22T08:47:47;739.63;;;691.17;;
13609;SDS011;6876;50.788;4.940;2023-04-22T08:50:36;728.20;;;681.42;;
13609;SDS011;6876;50.788;4.940;2023-04-22T08:53:24;776.75;;;719.40;;
13609;SDS011;6876;50.788;4.940;2023-04-22T08:56:13;767.22;;;715.20;;
13609;SDS011;6876;50.788;4.940;2023-04-22T08:59:00;717.13;;;672.38;;
13609;SDS011;6876;50.788;4.940;2023-04-22T09:01:51;857.03;;;795.10;;
13609;SDS011;6876;50.788;4.940;2023-04-22T09:04:40;1999.90;;;999.90;;
13609;SDS011;6876;50.788;4.940;2023-04-22T09:07:28;1999.90;;;999.90;;
13609;SDS011;6876;50.788;4.940;2023-04-22T09:10:18;1999.90;;;999.90;;
13609;SDS011;6876;50.788;4.940;2023-04-22T09:13:07;1999.90;;;999.90;;
13609;SDS011;6876;50.788;4.940;2023-04-22T09:15:56;1999.90;;;999.90;;
13609;SDS011;6876;50.788;4.940;2023-04-22T09:18:43;1999.90;;;999.90;;
13609;SDS011;6876;50.788;4.940;2023-04-22T09:21:31;1999.90;;;999.90;;
13609;SDS011;6876;50.788;4.940;2023-04-22T09:24:19;1999.90;;;999.90;;
13609;SDS011;6876;50.788;4.940;2023-04-22T09:27:07;1999.90;;;999.90;;
13609;SDS011;6876;50.788;4.940;2023-04-22T09:29:58;1999.90;;;999.90;;
13609;SDS011;6876;50.788;4.940;2023-04-22T09:32:55;1999.90;;;999.90;;
13609;SDS011;6876;50.788;4.940;2023-04-22T09:35:43;1999.90;;;999.90;;
13609;SDS011;6876;50.788;4.940;2023-04-22T09:38:30;1999.90;;;999.90;;
13609;SDS011;6876;50.788;4.940;2023-04-22T09:41:17;1999.90;;;999.90;;
13609;SDS011;6876;50.788;4.940;2023-04-22T09:44:13;1999.90;;;999.90;;
13609;SDS011;6876;50.788;4.940;2023-04-22T09:47:03;1999.90;;;999.90;;
13609;SDS011;6876;50.788;4.940;2023-04-22T09:49:51;1999.90;;;999.90;;
13609;SDS011;6876;50.788;4.940;2023-04-22T09:52:38;1999.90;;;999.90;;
13609;SDS011;6876;50.788;4.940;2023-04-22T09:55:26;1999.90;;;999.90;;
13609;SDS011;6876;50.788;4.940;2023-04-22T09:58:15;1999.90;;;999.90;;
13609;SDS011;6876;50.788;4.940;2023-04-22T10:01:04;1999.90;;;999.90;;
13609;SDS011;6876;50.788;4.940;2023-04-22T10:03:52;1999.90;;;999.90;;
13609;SDS011;6876;50.788;4.940;2023-04-22T10:06:40;1999.90;;;999.90;;
13609;SDS011;6876;50.788;4.940;2023-04-22T10:09:28;1999.90;;;999.90;;
13609;SDS011;6876;50.788;4.940;2023-04-22T10:12:15;1999.90;;;999.90;;
13609;SDS011;6876;50.788;4.940;2023-04-22T10:15:03;1999.90;;;999.90;;
13609;SDS011;6876;50.788;4.940;2023-04-22T10:17:52;1999.90;;;999.90;;
13609;SDS011;6876;50.788;4.940;2023-04-22T10:20:41;1999.90;;;999.90;;
13609;SDS011;6876;50.788;4.940;2023-04-22T10:23:31;1999.90;;;999.90;;
13609;SDS011;6876;50.788;4.940;2023-04-22T10:26:37;1999.90;;;999.90;;
13609;SDS011;6876;50.788;4.940;2023-04-22T10:29:26;1999.90;;;999.90;;
13609;SDS011;6876;50.788;4.940;2023-04-22T10:32:23;1999.90;;;999.90;;
13609;SDS011;6876;50.788;4.940;2023-04-22T10:35:12;1999.90;;;999.90;;
13609;SDS011;6876;50.788;4.940;2023-04-22T10:38:02;1999.90;;;999.90;;
13609;SDS011;6876;50.788;4.940;2023-04-22T10:41:02;1999.90;;;999.90;;
13609;SDS011;6876;50.788;4.940;2023-04-22T10:43:54;1999.90;;;999.90;;
13609;SDS011;6876;50.788;4.940;2023-04-22T10:46:55;1999.90;;;999.90;;
13609;SDS011;6876;50.788;4.940;2023-04-22T10:49:46;1999.90;;;999.90;;
13609;SDS011;6876;50.788;4.940;2023-04-22T10:52:36;1999.90;;;999.90;;
13609;SDS011;6876;50.788;4.940;2023-04-22T10:55:25;1999.90;;;999.90;;
13609;SDS011;6876;50.788;4.940;2023-04-22T10:58:36;1999.90;;;999.90;;
13609;SDS011;6876;50.788;4.940;2023-04-22T11:01:23;1999.90;;;999.90;;
13609;SDS011;6876;50.788;4.940;2023-04-22T11:04:19;1999.90;;;999.90;;
13609;SDS011;6876;50.788;4.940;2023-04-22T11:07:14;1999.90;;;999.90;;
13609;SDS011;6876;50.788;4.940;2023-04-22T11:10:36;1999.90;;;999.90;;
13609;SDS011;6876;50.788;4.940;2023-04-22T11:13:28;1999.90;;;999.90;;
13609;SDS011;6876;50.788;4.940;2023-04-22T11:16:15;1999.90;;;999.90;;
13609;SDS011;6876;50.788;4.940;2023-04-22T11:19:03;1999.90;;;999.90;;
13609;SDS011;6876;50.788;4.940;2023-04-22T11:21:50;1999.90;;;999.90;;
13609;SDS011;6876;50.788;4.940;2023-04-22T11:24:39;1999.90;;;999.90;;
13609;SDS011;6876;50.788;4.940;2023-04-22T11:27:28;1999.90;;;999.90;;
13609;SDS011;6876;50.788;4.940;2023-04-22T11:30:16;1999.90;;;999.90;;
13609;SDS011;6876;50.788;4.940;2023-04-22T11:33:05;1999.90;;;999.90;;
13609;SDS011;6876;50.788;4.940;2023-04-22T11:35:52;1999.90;;;999.90;;
13609;SDS011;6876;50.788;4.940;2023-04-22T11:38:42;1999.90;;;999.90;;
13609;SDS011;6876;50.788;4.940;2023-04-22T11:41:40;1999.90;;;999.90;;
13609;SDS011;6876;50.788;4.940;2023-04-22T11:44:29;1999.90;;;999.90;;
13609;SDS011;6876;50.788;4.940;2023-04-22T11:47:17;1999.90;;;999.90;;
13609;SDS011;6876;50.788;4.940;2023-04-22T11:50:05;1999.90;;;999.90;;
13609;SDS011;6876;50.788;4.940;2023-04-22T11:52:56;1999.90;;;999.90;;
13609;SDS011;6876;50.788;4.940;2023-04-22T11:55:48;1999.90;;;999.90;;
13609;SDS011;6876;50.788;4.940;2023-04-22T11:58:37;1999.90;;;999.90;;
13609;SDS011;6876;50.788;4.940;2023-04-22T12:01:28;1999.90;;;999.90;;
13609;SDS011;6876;50.788;4.940;2023-04-22T12:04:15;1999.90;;;999.90;;
13609;SDS011;6876;50.788;4.940;2023-04-22T12:07:03;1999.90;;;999.90;;
13609;SDS011;6876;50.788;4.940;2023-04-22T12:09:52;1999.90;;;999.90;;
13609;SDS011;6876;50.788;4.940;2023-04-22T12:12:40;1999.90;;;999.90;;
13609;SDS011;6876;50.788;4.940;2023-04-22T12:15:36;1999.90;;;999.90;;
13609;SDS011;6876;50.788;4.940;2023-04-22T12:18:29;1999.90;;;999.90;;
13609;SDS011;6876;50.788;4.940;2023-04-22T12:21:18;1999.90;;;999.90;;
13609;SDS011;6876;50.788;4.940;2023-04-22T12:24:08;1999.90;;;999.90;;
13609;SDS011;6876;50.788;4.940;2023-04-22T12:26:56;1999.90;;;999.90;;
13609;SDS011;6876;50.788;4.940;2023-04-22T12:29:49;1999.90;;;999.90;;
13609;SDS011;6876;50.788;4.940;2023-04-22T12:32:37;1999.90;;;999.90;;
13609;SDS011;6876;50.788;4.940;2023-04-22T12:35:26;1999.90;;;999.90;;
13609;SDS011;6876;50.788;4.940;2023-04-22T12:38:13;1999.90;;;999.90;;
13609;SDS011;6876;50.788;4.940;2023-04-22T12:41:03;1999.90;;;999.90;;
13609;SDS011;6876;50.788;4.940;2023-04-22T12:43:52;1999.90;;;999.90;;
13609;SDS011;6876;50.788;4.940;2023-04-22T12:46:40;1999.90;;;999.90;;
13609;SDS011;6876;50.788;4.940;2023-04-22T12:49:27;1999.90;;;999.90;;
13609;SDS011;6876;50.788;4.940;2023-04-22T12:52:17;1999.90;;;999.90;;
13609;SDS011;6876;50.788;4.940;2023-04-22T12:55:04;1999.90;;;999.90;;
13609;SDS011;6876;50.788;4.940;2023-04-22T12:57:53;1999.90;;;999.90;;
13609;SDS011;6876;50.788;4.940;2023-04-22T13:00:41;1999.90;;;999.90;;
13609;SDS011;6876;50.788;4.940;2023-04-22T13:03:30;1999.90;;;999.90;;
13609;SDS011;6876;50.788;4.940;2023-04-22T13:06:19;1999.90;;;999.90;;
13609;SDS011;6876;50.788;4.940;2023-04-22T13:09:08;1999.90;;;999.90;;
13609;SDS011;6876;50.788;4.940;2023-04-22T13:11:55;1999.90;;;999.90;;
13609;SDS011;6876;50.788;4.940;2023-04-22T13:14:42;1999.90;;;999.90;;
13609;SDS011;6876;50.788;4.940;2023-04-22T13:17:30;1999.90;;;999.90;;
13609;SDS011;6876;50.788;4.940;2023-04-22T13:20:17;1999.90;;;999.90;;
13609;SDS011;6876;50.788;4.940;2023-04-22T13:23:05;1999.90;;;999.90;;
13609;SDS011;6876;50.788;4.940;2023-04-22T13:25:55;1999.90;;;999.90;;
13609;SDS011;6876;50.788;4.940;2023-04-22T13:28:43;1999.90;;;999.90;;
13609;SDS011;6876;50.788;4.940;2023-04-22T13:31:30;1999.90;;;999.90;;
13609;SDS011;6876;50.788;4.940;2023-04-22T13:34:17;1999.90;;;999.90;;
13609;SDS011;6876;50.788;4.940;2023-04-22T13:37:05;1999.90;;;999.90;;
13609;SDS011;6876;50.788;4.940;2023-04-22T13:39:52;1999.90;;;999.90;;
13609;SDS011;6876;50.788;4.940;2023-04-22T13:42:41;1999.90;;;999.90;;
13609;SDS011;6876;50.788;4.940;2023-04-22T13:45:29;1999.90;;;999.90;;
13609;SDS011;6876;50.788;4.940;2023-04-22T13:48:17;1999.90;;;999.90;;
13609;SDS011;6876;50.788;4.940;2023-04-22T13:51:04;1999.90;;;999.90;;
13609;SDS011;6876;50.788;4.940;2023-04-22T13:53:51;1999.90;;;999.90;;
13609;SDS011;6876;50.788;4.940;2023-04-22T13:56:39;1999.90;;;999.90;;
13609;SDS011;6876;50.788;4.940;2023-04-22T13:59:29;1999.90;;;999.90;;
13609;SDS011;6876;50.788;4.940;2023-04-22T14:02:16;1999.90;;;999.90;;
13609;SDS011;6876;50.788;4.940;2023-04-22T14:05:04;1999.90;;;999.90;;
13609;SDS011;6876;50.788;4.940;2023-04-22T14:07:52;1999.90;;;999.90;;
13609;SDS011;6876;50.788;4.940;2023-04-22T14:10:40;1999.90;;;999.90;;
13609;SDS011;6876;50.788;4.940;2023-04-22T14:13:27;1999.90;;;999.90;;
13609;SDS011;6876;50.788;4.940;2023-04-22T14:16:17;1999.90;;;999.90;;
13609;SDS011;6876;50.788;4.940;2023-04-22T14:19:04;1999.90;;;999.90;;
13609;SDS011;6876;50.788;4.940;2023-04-22T14:21:54;1999.90;;;999.90;;
13609;SDS011;6876;50.788;4.940;2023-04-22T14:24:41;1999.90;;;999.90;;
13609;SDS011;6876;50.788;4.940;2023-04-22T14:27:29;1999.90;;;999.90;;
13609;SDS011;6876;50.788;4.940;2023-04-22T14:30:17;1999.90;;;999.90;;
13609;SDS011;6876;50.788;4.940;2023-04-22T14:33:07;1999.90;;;999.90;;
13609;SDS011;6876;50.788;4.940;2023-04-22T14:35:55;1999.90;;;999.90;;
13609;SDS011;6876;50.788;4.940;2023-04-22T14:38:42;1999.90;;;999.90;;
13609;SDS011;6876;50.788;4.940;2023-04-22T14:41:30;1999.90;;;999.90;;
13609;SDS011;6876;50.788;4.940;2023-04-22T14:44:17;1999.90;;;999.90;;
13609;SDS011;6876;50.788;4.940;2023-04-22T14:47:04;1999.90;;;999.90;;
13609;SDS011;6876;50.788;4.940;2023-04-22T14:49:53;1999.90;;;999.90;;
13609;SDS011;6876;50.788;4.940;2023-04-22T14:52:40;1999.90;;;999.90;;
13609;SDS011;6876;50.788;4.940;2023-04-22T14:55:28;1999.90;;;999.90;;
13609;SDS011;6876;50.788;4.940;2023-04-22T14:58:15;1999.90;;;999.90;;
13609;SDS011;6876;50.788;4.940;2023-04-22T15:01:03;1999.90;;;999.90;;
13609;SDS011;6876;50.788;4.940;2023-04-22T15:03:52;1999.90;;;999.90;;
13609;SDS011;6876;50.788;4.940;2023-04-22T15:06:40;1999.90;;;999.90;;
13609;SDS011;6876;50.788;4.940;2023-04-22T15:09:28;1999.90;;;999.90;;
13609;SDS011;6876;50.788;4.940;2023-04-22T15:12:15;1999.90;;;999.90;;
13609;SDS011;6876;50.788;4.940;2023-04-22T15:15:03;1999.90;;;999.90;;
13609;SDS011;6876;50.788;4.940;2023-04-22T15:17:50;1999.90;;;999.90;;
13609;SDS011;6876;50.788;4.940;2023-04-22T15:20:38;1999.90;;;999.90;;
13609;SDS011;6876;50.788;4.940;2023-04-22T15:23:28;1999.90;;;999.90;;
13609;SDS011;6876;50.788;4.940;2023-04-22T15:26:15;1999.90;;;999.90;;
13609;SDS011;6876;50.788;4.940;2023-04-22T15:29:02;1999.90;;;999.90;;
13609;SDS011;6876;50.788;4.940;2023-04-22T15:31:50;1999.90;;;999.90;;
13609;SDS011;6876;50.788;4.940;2023-04-22T15:34:38;1999.90;;;999.90;;
13609;SDS011;6876;50.788;4.940;2023-04-22T15:37:25;1999.90;;;999.90;;
13609;SDS011;6876;50.788;4.940;2023-04-22T15:40:14;1999.90;;;999.90;;
13609;SDS011;6876;50.788;4.940;2023-04-22T15:43:01;1999.90;;;999.90;;
13609;SDS011;6876;50.788;4.940;2023-04-22T15:45:49;1999.90;;;999.90;;
13609;SDS011;6876;50.788;4.940;2023-04-22T15:48:36;1999.90;;;999.90;;
13609;SDS011;6876;50.788;4.940;2023-04-22T15:51:25;1999.90;;;999.90;;
13609;SDS011;6876;50.788;4.940;2023-04-22T15:54:13;1999.90;;;999.90;;
13609;SDS011;6876;50.788;4.940;2023-04-22T15:57:04;1999.90;;;999.90;;